Time;durP1;ratioP1;P1;durP2;ratioP2;P2;SDS_P1;SDS_P2;PMS_P1;PMS_P2;Temp;Humidity;BMP_temperature;BMP_pressure;BME280_temperature;BME280_humidity;BME280_pressure;Samples;Min_cycle;Max_cycle;Signal;HPM_P1;HPM_P2
2023/06/03 00:00:21;;;;;;;3.25;1.00;;;13.80;99.90;;;;;;4996257;28;20029;-71
2023/06/03 00:02:49;;;;;;;5.07;1.08;;;13.80;99.90;;;;;;4993741;28;20371;-70
2023/06/03 00:05:21;;;;;;;2.95;1.35;;;13.70;99.90;;;;;;5004372;28;20104;-71
2023/06/03 00:07:46;;;;;;;6.07;1.20;;;13.70;99.90;;;;;;5002455;28;20052;-70
2023/06/03 00:10:18;;;;;;;5.18;1.30;;;13.70;99.90;;;;;;4998918;28;20483;-72
2023/06/03 00:12:49;;;;;;;3.25;1.25;;;13.70;99.90;;;;;;5020920;28;20046;-70
2023/06/03 00:15:15;;;;;;;7.72;1.30;;;13.60;99.90;;;;;;4991559;28;20026;-70
2023/06/03 00:17:41;;;;;;;5.50;1.30;;;13.60;99.90;;;;;;4998789;28;20022;-70
2023/06/03 00:20:09;;;;;;;4.78;1.00;;;13.60;99.90;;;;;;4996772;28;21596;-70
2023/06/03 00:22:37;;;;;;;8.93;1.17;;;13.60;99.90;;;;;;4997695;28;20034;-71
2023/06/03 00:25:06;;;;;;;6.32;0.80;;;13.60;99.90;;;;;;4995962;28;20041;-69
2023/06/03 00:27:32;;;;;;;5.32;1.10;;;13.60;99.90;;;;;;4997592;28;20133;-71
2023/06/03 00:29:57;;;;;;;4.63;1.10;;;13.50;99.90;;;;;;4999147;28;20108;-70
2023/06/03 00:32:25;;;;;;;4.63;1.30;;;13.50;99.90;;;;;;4998610;28;20037;-71
2023/06/03 00:34:51;;;;;;;3.83;1.05;;;13.50;99.90;;;;;;5002593;28;20088;-72
2023/06/03 00:37:16;;;;;;;5.18;1.08;;;13.50;99.90;;;;;;4997820;28;20029;-71
2023/06/03 00:39:51;;;;;;;8.50;1.42;;;13.40;99.90;;;;;;4997695;28;20188;-70
2023/06/03 00:42:17;;;;;;;5.18;1.05;;;13.40;99.90;;;;;;5000323;28;20038;-70
2023/06/03 00:44:43;;;;;;;3.13;1.35;;;13.40;99.90;;;;;;5001779;28;20623;-70
2023/06/03 00:47:08;;;;;;;2.50;1.05;;;13.40;99.90;;;;;;5002161;28;20097;-70
2023/06/03 00:49:38;;;;;;;4.72;1.90;;;13.30;99.90;;;;;;4996230;28;20093;-70
2023/06/03 00:52:07;;;;;;;4.13;1.13;;;13.30;99.90;;;;;;4994692;28;20034;-71
2023/06/03 00:54:33;;;;;;;4.40;1.10;;;13.30;99.90;;;;;;5000341;28;20555;-70
2023/06/03 00:57:00;;;;;;;2.55;1.00;;;13.30;99.90;;;;;;5001064;28;20136;-70
2023/06/03 00:59:25;;;;;;;4.15;1.15;;;13.30;99.90;;;;;;4991612;28;20129;-69
2023/06/03 01:01:51;;;;;;;4.10;1.35;;;13.20;99.90;;;;;;4994710;28;20447;-70
2023/06/03 01:04:18;;;;;;;5.90;1.30;;;13.30;99.90;;;;;;4986503;28;20037;-71
2023/06/03 01:06:45;;;;;;;5.05;1.75;;;13.20;99.90;;;;;;4990339;28;20073;-71
2023/06/03 01:09:44;;;;;;;7.30;1.42;;;13.30;99.90;;;;;;5024002;28;20473;-70
2023/06/03 01:12:30;;;;;;;4.55;1.10;;;13.30;99.90;;;;;;4988497;28;20092;-70
2023/06/03 01:15:04;;;;;;;4.25;1.20;;;13.30;99.90;;;;;;4993040;28;20058;-70
2023/06/03 01:17:35;;;;;;;2.80;1.05;;;13.30;99.90;;;;;;4990213;28;20042;-70
2023/06/03 01:20:12;;;;;;;6.57;1.30;;;13.20;99.90;;;;;;4992745;28;20045;-71
2023/06/03 01:22:42;;;;;;;5.22;1.05;;;13.20;99.90;;;;;;5001186;28;20045;-71
2023/06/03 01:25:15;;;;;;;6.55;1.27;;;13.10;99.90;;;;;;4995057;28;20041;-70
2023/06/03 01:27:42;;;;;;;5.07;1.45;;;13.10;99.90;;;;;;4994128;28;20499;-69
2023/06/03 01:30:11;;;;;;;2.50;1.20;;;13.00;99.90;;;;;;4995705;28;20179;-72
2023/06/03 01:32:38;;;;;;;6.60;1.38;;;13.00;99.90;;;;;;4997863;28;20108;-71
2023/06/03 01:35:06;;;;;;;3.67;1.10;;;12.90;99.90;;;;;;4996127;28;20046;-71
2023/06/03 01:37:32;;;;;;;2.30;1.00;;;12.90;99.90;;;;;;4986195;28;20038;-70
2023/06/03 01:40:00;;;;;;;3.58;1.45;;;12.90;99.90;;;;;;5005373;28;20030;-71
2023/06/03 01:42:29;;;;;;;6.32;1.33;;;12.90;99.90;;;;;;4992378;28;20050;-71
2023/06/03 01:44:57;;;;;;;4.85;1.30;;;12.90;99.90;;;;;;5000751;28;20747;-71
2023/06/03 01:47:23;;;;;;;8.55;1.40;;;12.90;99.90;;;;;;4998875;28;20067;-70
2023/06/03 01:49:49;;;;;;;3.55;1.25;;;12.80;99.90;;;;;;4997787;28;20695;-71
2023/06/03 01:52:17;;;;;;;2.78;1.08;;;12.80;99.90;;;;;;4996057;28;20113;-71
2023/06/03 01:54:43;;;;;;;4.60;1.50;;;12.80;99.90;;;;;;4997925;28;20058;-70
2023/06/03 01:57:16;;;;;;;3.38;0.90;;;12.80;99.90;;;;;;5000749;28;20076;-70
2023/06/03 01:59:42;;;;;;;3.45;1.13;;;12.70;99.90;;;;;;5000418;28;20108;-71
2023/06/03 02:02:13;;;;;;;3.45;1.30;;;12.70;99.90;;;;;;4992318;28;20042;-71
2023/06/03 02:04:39;;;;;;;5.90;1.88;;;12.70;99.90;;;;;;4999166;28;20118;-71
2023/06/03 02:07:06;;;;;;;4.03;1.48;;;12.70;99.90;;;;;;4991140;28;20038;-70
2023/06/03 02:09:31;;;;;;;3.30;1.50;;;12.70;99.90;;;;;;5001143;28;20042;-70
2023/06/03 02:12:03;;;;;;;5.45;1.92;;;12.60;99.90;;;;;;4994623;28;20037;-70
2023/06/03 02:14:37;;;;;;;5.35;1.60;;;12.60;99.90;;;;;;4994353;28;20117;-70
2023/06/03 02:17:11;;;;;;;3.50;1.75;;;12.70;99.90;;;;;;4990980;28;20042;-71
2023/06/03 02:19:38;;;;;;;5.47;1.23;;;12.60;99.90;;;;;;5012351;28;20044;-70
2023/06/03 02:22:06;;;;;;;3.83;1.20;;;12.60;99.90;;;;;;5001390;28;20041;-71
2023/06/03 02:24:32;;;;;;;5.20;1.48;;;12.60;99.90;;;;;;4995739;28;20100;-71
2023/06/03 02:27:04;;;;;;;2.28;1.00;;;12.50;99.90;;;;;;4999721;28;20025;-71
2023/06/03 02:29:31;;;;;;;3.25;1.50;;;12.50;99.90;;;;;;5001507;28;20133;-70
2023/06/03 02:31:58;;;;;;;4.90;1.63;;;12.50;99.90;;;;;;5005051;28;20506;-71
2023/06/03 02:34:24;;;;;;;3.55;1.65;;;12.40;99.90;;;;;;5004830;28;20071;-70
2023/06/03 02:36:53;;;;;;;3.08;1.30;;;12.40;99.90;;;;;;4997252;28;20065;-70
2023/06/03 02:39:19;;;;;;;2.63;1.10;;;12.40;99.90;;;;;;5003059;28;20494;-71
2023/06/03 02:41:48;;;;;;;4.90;1.73;;;12.40;99.90;;;;;;4999694;28;20522;-69
2023/06/03 02:44:14;;;;;;;5.88;1.30;;;12.40;99.90;;;;;;4993556;28;20061;-71
2023/06/03 02:46:40;;;;;;;3.65;1.55;;;12.30;99.90;;;;;;4996931;28;20050;-72
2023/06/03 02:49:07;;;;;;;3.90;1.55;;;12.30;99.90;;;;;;4993260;28;20461;-70
2023/06/03 02:51:36;;;;;;;3.80;1.42;;;12.30;99.90;;;;;;4999504;28;20458;-70
2023/06/03 02:54:02;;;;;;;7.20;1.40;;;12.30;99.90;;;;;;4998556;28;20038;-71
2023/06/03 02:56:28;;;;;;;6.93;1.20;;;12.20;99.90;;;;;;5004461;28;20061;-70
2023/06/03 02:58:57;;;;;;;3.72;1.27;;;12.30;99.90;;;;;;5005360;28;20065;-72
2023/06/03 03:01:23;;;;;;;7.30;1.60;;;12.30;99.90;;;;;;4998739;28;20038;-71
2023/06/03 03:03:55;;;;;;;4.60;1.20;;;12.30;99.90;;;;;;4991742;28;20065;-74
2023/06/03 03:06:21;;;;;;;4.72;1.60;;;12.30;99.90;;;;;;4994484;28;20107;-69
2023/06/03 03:08:52;;;;;;;5.95;1.20;;;12.30;99.90;;;;;;5030274;28;20069;-69
2023/06/03 03:11:21;;;;;;;7.60;1.42;;;12.20;99.90;;;;;;4994117;28;20038;-71
2023/06/03 03:13:47;;;;;;;7.00;1.73;;;12.30;99.90;;;;;;4998531;28;20172;-70
2023/06/03 03:16:15;;;;;;;4.00;1.25;;;12.20;99.90;;;;;;4990837;28;20038;-75
2023/06/03 03:18:41;;;;;;;18.38;2.72;;;12.20;99.90;;;;;;4997377;28;20132;-71
2023/06/03 03:21:07;;;;;;;4.05;1.20;;;12.20;99.90;;;;;;4993234;28;20058;-69
2023/06/03 03:23:33;;;;;;;3.17;1.08;;;12.10;99.90;;;;;;4997779;28;20041;-70
2023/06/03 03:26:00;;;;;;;5.13;1.50;;;12.10;99.90;;;;;;4998285;28;20068;-71
2023/06/03 03:28:26;;;;;;;5.10;1.42;;;12.10;99.90;;;;;;4994000;28;20136;-70
2023/06/03 03:30:52;;;;;;;1.35;0.90;;;12.10;99.90;;;;;;4998016;28;20184;-70
2023/06/03 03:33:20;;;;;;;3.45;1.65;;;12.10;99.90;;;;;;4992483;28;20030;-71
2023/06/03 03:35:48;;;;;;;4.13;1.42;;;12.10;99.90;;;;;;4989613;28;20180;-70
2023/06/03 03:38:14;;;;;;;2.47;1.20;;;12.00;99.90;;;;;;4999435;28;20045;-71
2023/06/03 03:40:43;;;;;;;3.15;1.42;;;12.00;99.90;;;;;;4997515;28;20118;-70
2023/06/03 03:43:16;;;;;;;1.85;1.10;;;12.00;99.90;;;;;;4992604;28;20039;-71
2023/06/03 03:45:43;;;;;;;3.25;1.20;;;12.00;99.90;;;;;;5000471;28;20161;-71
2023/06/03 03:48:13;;;;;;;4.03;1.45;;;11.90;99.90;;;;;;4998927;28;20499;-69
2023/06/03 03:50:48;;;;;;;6.90;1.58;;;11.90;99.90;;;;;;5000206;28;20494;-72
2023/06/03 03:53:18;;;;;;;5.35;1.42;;;11.90;99.90;;;;;;4994607;28;20030;-71
2023/06/03 03:55:46;;;;;;;3.92;1.10;;;11.90;99.90;;;;;;4996212;28;20023;-73
2023/06/03 03:58:26;;;;;;;5.15;1.13;;;11.80;99.90;;;;;;5001357;28;20038;-70
2023/06/03 04:01:00;;;;;;;2.63;1.15;;;11.80;99.90;;;;;;5019513;28;20061;-71
2023/06/03 04:03:35;;;;;;;4.40;1.65;;;11.80;99.90;;;;;;4997724;28;20033;-70
2023/06/03 04:06:01;;;;;;;1.38;1.00;;;11.80;99.90;;;;;;4988251;28;20042;-70
2023/06/03 04:08:36;;;;;;;5.20;1.05;;;11.80;99.90;;;;;;4996129;28;20038;-73
2023/06/03 04:11:02;;;;;;;3.80;1.23;;;11.80;99.90;;;;;;5000363;28;20718;-70
2023/06/03 04:13:51;;;;;;;3.53;1.25;;;11.90;99.90;;;;;;4992294;28;20517;-70
2023/06/03 04:16:49;;;;;;;4.53;1.20;;;11.90;99.90;;;;;;4982344;28;20118;-73
2023/06/03 04:19:17;;;;;;;2.58;1.00;;;12.00;99.90;;;;;;4991274;28;20042;-71
2023/06/03 04:21:43;;;;;;;4.25;1.38;;;12.00;99.90;;;;;;5024288;28;20032;-71
2023/06/03 04:24:09;;;;;;;3.50;1.13;;;12.10;99.90;;;;;;4999149;28;20116;-71
2023/06/03 04:26:38;;;;;;;3.03;1.10;;;12.10;99.90;;;;;;4997952;28;20486;-71
2023/06/03 04:29:04;;;;;;;4.60;1.00;;;12.10;99.90;;;;;;5005758;28;20080;-70
2023/06/03 04:31:30;;;;;;;1.70;0.70;;;12.20;99.90;;;;;;4998397;28;20141;-71
2023/06/03 04:33:55;;;;;;;4.38;1.02;;;12.20;99.90;;;;;;4995956;28;20054;-71
2023/06/03 04:36:21;;;;;;;2.03;0.90;;;12.10;99.90;;;;;;4996179;28;20070;-71
2023/06/03 04:38:47;;;;;;;4.40;1.23;;;12.20;99.90;;;;;;5001643;28;20113;-70
2023/06/03 04:41:15;;;;;;;1.45;0.68;;;12.20;99.90;;;;;;5000004;28;20030;-70
2023/06/03 04:43:43;;;;;;;1.80;1.00;;;12.30;99.90;;;;;;5001679;28;20046;-70
2023/06/03 04:46:10;;;;;;;6.22;2.10;;;12.40;99.90;;;;;;4997165;28;20072;-70
2023/06/03 04:48:41;;;;;;;3.15;1.15;;;12.40;99.90;;;;;;4998613;28;20030;-71
2023/06/03 04:51:10;;;;;;;3.22;0.77;;;12.40;99.90;;;;;;4994565;28;20034;-71
2023/06/03 04:53:36;;;;;;;1.63;0.82;;;12.40;99.90;;;;;;4989731;28;20058;-71
2023/06/03 04:56:02;;;;;;;3.60;1.20;;;12.50;99.90;;;;;;4996881;28;20026;-70
2023/06/03 04:58:28;;;;;;;2.72;0.95;;;12.50;99.90;;;;;;5001033;28;20045;-71
2023/06/03 05:00:53;;;;;;;3.50;0.80;;;12.60;99.90;;;;;;4997391;28;20026;-70
2023/06/03 05:03:19;;;;;;;2.50;1.05;;;12.60;99.90;;;;;;5001397;28;20033;-71
2023/06/03 05:05:45;;;;;;;9.27;1.02;;;12.70;99.90;;;;;;4992700;28;20031;-71
2023/06/03 05:08:10;;;;;;;3.45;0.80;;;12.80;99.90;;;;;;5003471;28;20037;-71
2023/06/03 05:10:36;;;;;;;3.38;0.75;;;12.80;99.90;;;;;;4994292;28;20487;-71
2023/06/03 05:13:03;;;;;;;2.58;0.80;;;12.80;99.90;;;;;;4994219;28;20056;-70
2023/06/03 05:15:29;;;;;;;4.57;1.00;;;12.90;99.90;;;;;;4997796;28;20049;-70
2023/06/03 05:17:55;;;;;;;2.72;1.10;;;13.00;99.90;;;;;;4994567;28;20026;-70
2023/06/03 05:20:21;;;;;;;10.48;0.93;;;12.90;99.90;;;;;;4997179;28;20494;-71
2023/06/03 05:22:46;;;;;;;3.88;0.75;;;13.00;99.90;;;;;;4988929;28;20098;-71
2023/06/03 05:25:12;;;;;;;4.65;0.95;;;13.10;99.90;;;;;;5000488;28;20169;-70
2023/06/03 05:27:37;;;;;;;2.60;0.60;;;13.20;99.90;;;;;;4996381;28;20037;-70
2023/06/03 05:30:03;;;;;;;4.15;1.00;;;13.30;99.90;;;;;;4997982;28;20022;-70
2023/06/03 05:32:29;;;;;;;2.30;1.05;;;13.30;99.90;;;;;;5000264;28;20165;-70
2023/06/03 05:34:55;;;;;;;5.07;0.50;;;13.40;99.90;;;;;;5004437;28;20045;-70
2023/06/03 05:37:21;;;;;;;1.92;0.65;;;13.70;99.90;;;;;;5002465;28;20040;-70
2023/06/03 05:39:46;;;;;;;1.58;0.60;;;13.90;99.90;;;;;;5002177;28;20030;-70
2023/06/03 05:42:12;;;;;;;1.88;0.75;;;14.10;99.90;;;;;;5004271;28;20053;-70
2023/06/03 05:44:38;;;;;;;2.42;0.70;;;14.50;99.90;;;;;;4994757;28;20426;-71
2023/06/03 05:47:03;;;;;;;3.70;1.05;;;14.90;98.90;;;;;;4997393;28;20042;-71
2023/06/03 05:49:29;;;;;;;1.67;0.60;;;15.50;98.30;;;;;;5000034;28;20034;-70
2023/06/03 05:51:55;;;;;;;2.30;0.63;;;16.00;98.10;;;;;;5028931;28;20128;-70
2023/06/03 05:54:20;;;;;;;1.92;0.70;;;16.70;97.10;;;;;;4996195;28;20105;-72
2023/06/03 05:56:46;;;;;;;1.45;0.60;;;17.10;96.60;;;;;;5000127;28;20538;-70
2023/06/03 05:59:14;;;;;;;0.60;0.40;;;17.50;95.30;;;;;;4998423;28;20487;-71
2023/06/03 06:01:40;;;;;;;3.35;0.68;;;17.80;94.30;;;;;;4991424;28;20038;-70
2023/06/03 06:04:05;;;;;;;2.42;0.50;;;17.90;93.70;;;;;;4998364;28;20026;-70
2023/06/03 06:06:31;;;;;;;1.45;0.57;;;18.00;94.50;;;;;;5004156;28;20053;-71
2023/06/03 06:08:56;;;;;;;3.58;0.60;;;18.30;93.70;;;;;;4996090;28;22118;-72
2023/06/03 06:11:22;;;;;;;0.88;0.60;;;18.60;93.20;;;;;;4994562;28;20490;-72
2023/06/03 06:13:47;;;;;;;1.88;0.50;;;18.70;93.00;;;;;;5001889;28;20034;-72
2023/06/03 06:16:13;;;;;;;4.13;1.38;;;18.90;92.30;;;;;;4993449;28;20412;-71
2023/06/03 06:18:39;;;;;;;4.20;0.60;;;18.90;92.50;;;;;;4993512;28;20136;-69
2023/06/03 06:21:08;;;;;;;2.35;0.47;;;19.00;91.90;;;;;;4993954;28;20043;-71
2023/06/03 06:23:34;;;;;;;1.90;0.50;;;19.00;92.30;;;;;;4999082;28;22200;-72
2023/06/03 06:26:00;;;;;;;3.90;0.63;;;19.20;91.40;;;;;;4998936;28;20381;-72
2023/06/03 06:28:26;;;;;;;1.67;0.57;;;19.50;90.90;;;;;;4998173;28;20515;-72
2023/06/03 06:30:54;;;;;;;1.63;0.35;;;20.10;90.20;;;;;;4999891;28;20029;-71
2023/06/03 06:33:20;;;;;;;1.58;0.40;;;20.70;90.10;;;;;;5004626;28;20045;-72
2023/06/03 06:35:45;;;;;;;6.05;1.30;;;21.30;91.10;;;;;;5011205;28;20030;-70
2023/06/03 06:38:12;;;;;;;3.53;0.63;;;22.10;88.40;;;;;;5002035;28;20029;-70
2023/06/03 06:40:38;;;;;;;17.67;0.75;;;23.10;88.70;;;;;;5002167;28;20045;-74
2023/06/03 06:43:05;;;;;;;3.03;0.65;;;24.40;84.30;;;;;;5007659;28;20040;-72
2023/06/03 06:45:35;;;;;;;4.50;1.02;;;25.30;82.40;;;;;;5013530;28;20037;-72
2023/06/03 06:48:12;;;;;;;2.25;0.80;;;26.40;79.10;;;;;;5000057;28;20053;-71
2023/06/03 06:50:54;;;;;;;7.28;1.33;;;26.70;80.30;;;;;;5008051;28;20029;-71
2023/06/03 06:53:24;;;;;;;4.50;1.00;;;27.50;77.00;;;;;;5007209;28;20022;-71
2023/06/03 06:56:04;;;;;;;2.45;0.77;;;28.20;72.00;;;;;;4997451;28;20164;-71
2023/06/03 06:58:39;;;;;;;2.08;0.90;;;28.30;73.60;;;;;;5001735;28;20041;-71
2023/06/03 07:01:06;;;;;;;2.05;0.85;;;28.90;73.10;;;;;;5023771;28;20145;-71
2023/06/03 07:03:33;;;;;;;1.63;0.85;;;29.30;72.70;;;;;;5006659;28;20509;-71
2023/06/03 07:05:59;;;;;;;4.88;1.30;;;29.50;71.50;;;;;;5004886;28;20037;-71
2023/06/03 07:08:25;;;;;;;2.33;1.10;;;30.40;67.20;;;;;;5002520;28;20029;-71
2023/06/03 07:10:57;;;;;;;4.25;1.00;;;30.40;66.10;;;;;;5003786;28;20084;-71
2023/06/03 07:13:23;;;;;;;1.80;1.10;;;30.70;65.20;;;;;;5003000;28;20033;-73
2023/06/03 07:15:48;;;;;;;1.70;0.95;;;30.90;64.50;;;;;;5007391;28;20383;-71
2023/06/03 07:18:14;;;;;;;3.08;0.95;;;31.10;62.60;;;;;;5006877;28;20346;-72
2023/06/03 07:20:42;;;;;;;2.42;1.15;;;31.20;64.60;;;;;;5007976;28;20114;-69
2023/06/03 07:23:10;;;;;;;2.05;0.82;;;31.20;61.40;;;;;;5008373;28;20038;-70
2023/06/03 07:25:45;;;;;;;5.07;1.10;;;31.40;63.10;;;;;;5002794;28;20117;-72
2023/06/03 07:28:18;;;;;;;4.97;1.17;;;31.60;61.80;;;;;;5006145;28;20490;-72
2023/06/03 07:30:45;;;;;;;5.00;1.02;;;32.00;59.90;;;;;;5005309;28;20066;-72
2023/06/03 07:33:46;;;;;;;2.75;1.30;;;32.30;57.20;;;;;;5007323;28;20543;-73
2023/06/03 07:36:12;;;;;;;2.35;1.30;;;31.80;60.00;;;;;;4991887;28;20046;-72
2023/06/03 07:38:38;;;;;;;5.18;1.40;;;31.90;57.50;;;;;;5024107;28;20038;-72
2023/06/03 07:41:08;;;;;;;2.10;1.15;;;32.00;56.20;;;;;;5007357;28;20038;-72
2023/06/03 07:43:35;;;;;;;1.85;1.02;;;31.80;55.80;;;;;;5003831;28;20092;-71
2023/06/03 07:46:08;;;;;;;3.55;1.15;;;32.00;56.20;;;;;;5006319;28;20030;-72
2023/06/03 07:48:37;;;;;;;6.60;1.10;;;32.20;56.80;;;;;;5003837;28;20042;-71
2023/06/03 07:51:04;;;;;;;1.95;0.95;;;32.10;54.50;;;;;;5007092;28;20040;-72
2023/06/03 07:53:35;;;;;;;3.67;1.40;;;31.70;54.60;;;;;;5000772;28;20037;-72
2023/06/03 07:56:06;;;;;;;1.55;1.05;;;32.00;53.70;;;;;;5005249;28;20034;-72
2023/06/03 07:58:35;;;;;;;4.00;1.38;;;32.00;54.20;;;;;;5003756;28;20037;-72
2023/06/03 08:01:03;;;;;;;2.88;1.10;;;31.50;53.70;;;;;;5002105;28;20101;-71
2023/06/03 08:03:31;;;;;;;1.27;0.70;;;31.50;52.40;;;;;;5005693;28;20159;-70
2023/06/03 08:05:57;;;;;;;2.13;1.23;;;31.00;51.20;;;;;;5005578;28;20026;-70
2023/06/03 08:08:29;;;;;;;2.95;0.88;;;30.00;51.30;;;;;;5003581;28;20038;-71
2023/06/03 08:10:55;;;;;;;1.27;0.90;;;29.40;54.10;;;;;;5002018;28;20038;-71
2023/06/03 08:13:21;;;;;;;1.70;0.65;;;28.90;54.90;;;;;;5002895;28;20676;-70
2023/06/03 08:15:47;;;;;;;2.15;0.90;;;28.50;54.20;;;;;;5005873;28;20046;-70
2023/06/03 08:18:35;;;;;;;1.08;0.40;;;27.60;55.20;;;;;;5005349;28;20371;-72
2023/06/03 08:21:02;;;;;;;1.45;0.40;;;27.00;55.30;;;;;;5003574;28;20606;-71
2023/06/03 08:23:27;;;;;;;1.88;0.50;;;26.60;55.50;;;;;;5002376;28;20113;-71
2023/06/03 08:25:53;;;;;;;1.23;0.50;;;26.10;54.80;;;;;;5003610;28;20458;-71
2023/06/03 08:28:18;;;;;;;1.00;0.43;;;25.90;54.20;;;;;;5003548;28;20122;-71
2023/06/03 08:30:47;;;;;;;1.70;0.57;;;25.60;56.10;;;;;;5005990;28;20030;-71
2023/06/03 08:33:13;;;;;;;2.08;0.70;;;25.30;57.80;;;;;;5004107;28;20057;-72
2023/06/03 08:35:38;;;;;;;3.97;0.73;;;25.20;58.10;;;;;;5002882;28;20103;-71
2023/06/03 08:38:04;;;;;;;1.45;0.40;;;25.10;57.30;;;;;;5005596;28;20091;-71
2023/06/03 08:40:33;;;;;;;2.13;0.40;;;25.00;57.90;;;;;;5004302;28;20026;-70
2023/06/03 08:43:03;;;;;;;1.27;0.50;;;24.80;57.40;;;;;;5001259;28;20503;-71
2023/06/03 08:45:38;;;;;;;3.30;0.40;;;24.60;58.00;;;;;;5005300;28;20068;-70
2023/06/03 08:48:20;;;;;;;1.85;0.40;;;24.50;57.90;;;;;;5003348;28;20030;-70
2023/06/03 08:50:49;;;;;;;0.60;0.35;;;24.50;57.70;;;;;;5003537;28;20109;-70
2023/06/03 08:53:15;;;;;;;3.30;0.35;;;24.30;57.30;;;;;;5001368;28;20025;-69
2023/06/03 08:55:40;;;;;;;0.47;0.28;;;24.00;57.90;;;;;;5003167;28;20447;-70
2023/06/03 08:58:23;;;;;;;6.70;0.60;;;24.00;59.60;;;;;;5003518;28;20040;-69
2023/06/03 09:00:56;;;;;;;2.10;0.40;;;24.00;59.30;;;;;;5001760;28;21531;-71
2023/06/03 09:03:22;;;;;;;2.13;0.43;;;24.00;59.20;;;;;;5001530;28;20517;-73
2023/06/03 09:05:49;;;;;;;3.00;0.45;;;24.00;58.70;;;;;;5000633;28;20129;-70
2023/06/03 09:08:16;;;;;;;1.70;0.40;;;24.00;59.30;;;;;;5002085;28;20084;-70
2023/06/03 09:10:45;;;;;;;1.35;0.43;;;24.00;58.60;;;;;;5005941;28;20117;-70
2023/06/03 09:13:13;;;;;;;0.95;0.32;;;24.00;58.60;;;;;;5005088;28;20715;-70
2023/06/03 09:15:42;;;;;;;1.05;0.28;;;23.90;58.60;;;;;;5003595;28;20137;-72
2023/06/03 09:18:14;;;;;;;6.18;0.95;;;23.90;59.20;;;;;;4998557;28;20471;-72
2023/06/03 09:20:42;;;;;;;0.93;0.20;;;23.80;60.10;;;;;;5003416;28;20429;-70
2023/06/03 09:23:11;;;;;;;3.88;0.50;;;23.90;60.30;;;;;;5001490;28;20379;-70
2023/06/03 09:25:36;;;;;;;4.70;0.40;;;23.90;58.90;;;;;;5002773;28;20026;-72
2023/06/03 09:28:03;;;;;;;2.25;0.50;;;23.90;61.00;;;;;;5005323;28;20045;-71
2023/06/03 09:30:33;;;;;;;4.93;1.08;;;23.70;60.10;;;;;;5003267;28;20117;-71
2023/06/03 09:32:58;;;;;;;;;;;23.70;59.20;;;;;;4998438;28;20095;-72
2023/06/03 09:35:24;;;;;;;3.53;0.35;;;23.70;60.00;;;;;;5003133;28;19972;-70
2023/06/03 09:38:00;;;;;;;3.85;0.35;;;23.50;60.10;;;;;;5003919;28;20032;-71
2023/06/03 09:40:30;;;;;;;3.03;0.40;;;23.50;59.50;;;;;;5000942;28;20118;-70
2023/06/03 09:42:56;;;;;;;1.48;0.40;;;23.60;58.70;;;;;;5020629;28;20038;-72
2023/06/03 09:45:31;;;;;;;3.20;0.30;;;23.50;58.90;;;;;;5004860;28;20129;-71
2023/06/03 09:47:59;;;;;;;3.38;0.40;;;23.50;58.70;;;;;;5002033;28;20041;-71
2023/06/03 09:50:27;;;;;;;1.02;0.40;;;23.70;58.60;;;;;;5003983;28;20076;-70
2023/06/03 09:52:52;;;;;;;2.17;0.43;;;23.60;58.30;;;;;;5000283;28;20045;-70
2023/06/03 09:55:18;;;;;;;1.30;0.30;;;23.70;57.70;;;;;;5000327;28;20096;-69
2023/06/03 09:58:02;;;;;;;0.93;0.32;;;23.70;58.20;;;;;;5002218;28;20092;-69
2023/06/03 10:00:29;;;;;;;1.88;0.40;;;23.70;59.10;;;;;;5000287;28;20663;-70
2023/06/03 10:03:06;;;;;;;2.70;0.30;;;23.70;57.90;;;;;;5000472;28;20489;-70
2023/06/03 10:05:33;;;;;;;0.77;0.40;;;23.60;58.60;;;;;;5000615;28;20109;-70
2023/06/03 10:08:00;;;;;;;1.45;0.30;;;23.60;59.50;;;;;;5002703;28;20137;-72
2023/06/03 10:10:52;;;;;;;1.50;0.20;;;23.70;58.60;;;;;;5001803;28;20486;-71
2023/06/03 10:13:20;;;;;;;0.50;0.20;;;23.80;58.30;;;;;;5002597;28;20040;-71
2023/06/03 10:15:45;;;;;;;1.50;0.30;;;23.90;57.70;;;;;;5003417;28;20580;-71
2023/06/03 10:18:11;;;;;;;2.53;0.32;;;23.90;57.80;;;;;;5000839;28;20046;-71
2023/06/03 10:20:41;;;;;;;2.03;0.55;;;23.80;58.10;;;;;;5002364;28;20049;-70
2023/06/03 10:23:09;;;;;;;4.97;0.70;;;23.60;58.20;;;;;;5001802;28;20150;-70
2023/06/03 10:25:42;;;;;;;1.75;0.30;;;23.60;57.30;;;;;;5004577;28;20482;-70
2023/06/03 10:28:09;;;;;;;3.47;0.55;;;23.70;59.80;;;;;;5021701;28;20033;-70
2023/06/03 10:30:35;;;;;;;1.48;0.30;;;23.80;60.00;;;;;;4998624;28;20034;-72
2023/06/03 10:33:03;;;;;;;2.88;0.50;;;23.90;58.30;;;;;;5000669;28;20081;-71
2023/06/03 10:35:31;;;;;;;1.33;0.30;;;23.90;58.50;;;;;;5002605;28;20784;-69
2023/06/03 10:37:58;;;;;;;2.75;0.50;;;23.90;58.90;;;;;;5000013;28;20052;-71
2023/06/03 10:40:24;;;;;;;1.75;0.20;;;23.90;57.70;;;;;;5002492;28;20124;-70
2023/06/03 10:42:53;;;;;;;0.85;0.32;;;23.80;57.50;;;;;;5002819;28;20091;-71
2023/06/03 10:45:18;;;;;;;0.20;0.10;;;23.60;58.10;;;;;;5004637;28;20026;-70
2023/06/03 10:47:58;;;;;;;2.67;0.35;;;23.60;57.00;;;;;;5003277;28;20039;-70
2023/06/03 10:50:32;;;;;;;2.08;0.20;;;23.70;57.60;;;;;;5002315;28;20042;-71
2023/06/03 10:53:49;;;;;;;1.52;0.30;;;23.80;59.20;;;;;;5006842;28;20486;-69
2023/06/03 10:56:44;;;;;;;1.30;0.20;;;23.70;58.10;;;;;;5006778;28;20037;-69
2023/06/03 10:59:15;;;;;;;2.53;0.25;;;23.80;58.00;;;;;;5003703;28;20034;-69
2023/06/03 11:02:00;;;;;;;3.88;0.40;;;23.80;56.90;;;;;;5005089;28;20034;-70
2023/06/03 11:04:28;;;;;;;2.40;0.50;;;23.80;57.50;;;;;;5017215;28;20053;-70
2023/06/03 11:06:54;;;;;;;2.13;0.40;;;23.70;57.00;;;;;;5005226;28;20044;-71
2023/06/03 11:09:36;;;;;;;1.50;0.50;;;23.70;58.60;;;;;;5006942;28;20068;-69
2023/06/03 11:12:05;;;;;;;1.02;0.22;;;23.60;57.70;;;;;;5005557;28;20478;-70
2023/06/03 11:14:31;;;;;;;2.70;0.50;;;23.70;56.90;;;;;;5001334;28;20865;-69
2023/06/03 11:17:00;;;;;;;0.68;0.20;;;23.70;57.50;;;;;;4997606;28;20092;-69
2023/06/03 11:19:35;;;;;;;0.30;0.10;;;23.70;56.70;;;;;;5002685;28;20655;-71
2023/06/03 11:22:07;;;;;;;0.85;0.20;;;23.70;58.00;;;;;;5006316;28;20574;-72
2023/06/03 11:24:38;;;;;;;1.70;0.25;;;23.60;57.00;;;;;;5005825;28;20177;-71
2023/06/03 11:27:13;;;;;;;0.88;0.10;;;23.60;57.30;;;;;;5004502;28;20169;-71
2023/06/03 11:29:47;;;;;;;0.57;0.10;;;23.50;56.80;;;;;;4998397;28;20415;-71
2023/06/03 11:32:22;;;;;;;1.77;0.30;;;23.60;57.40;;;;;;4999200;28;20117;-70
2023/06/03 11:35:03;;;;;;;0.88;0.30;;;23.50;55.80;;;;;;5013297;28;20045;-70
2023/06/03 11:37:52;;;;;;;1.35;0.30;;;23.60;57.50;;;;;;4998444;28;20038;-72
2023/06/03 11:40:20;;;;;;;2.33;0.30;;;23.60;55.60;;;;;;4974781;28;20048;-71
2023/06/03 11:42:54;;;;;;;3.22;0.38;;;23.60;57.20;;;;;;4995067;28;20041;-70
2023/06/03 11:45:27;;;;;;;0.55;0.17;;;23.50;58.80;;;;;;5015668;28;20068;-71
2023/06/03 11:48:02;;;;;;;0.60;0.25;;;23.50;57.70;;;;;;5000148;28;20474;-72
2023/06/03 11:50:33;;;;;;;0.47;0.20;;;23.50;56.90;;;;;;4994024;28;20050;-71
2023/06/03 11:52:59;;;;;;;0.38;0.20;;;23.40;56.70;;;;;;5003495;28;20688;-71
2023/06/03 11:55:29;;;;;;;1.38;0.20;;;23.50;58.80;;;;;;4997837;28;20038;-72
2023/06/03 11:58:22;;;;;;;1.45;0.20;;;23.50;58.50;;;;;;4995484;28;20151;-72
2023/06/03 12:01:05;;;;;;;2.75;0.25;;;23.60;56.40;;;;;;4989847;28;20529;-71
2023/06/03 12:03:30;;;;;;;1.75;0.30;;;23.60;56.80;;;;;;4995610;28;20074;-71
2023/06/03 12:06:03;;;;;;;1.35;0.20;;;23.70;54.10;;;;;;4995909;28;20074;-72
2023/06/03 12:08:48;;;;;;;0.30;0.20;;;23.50;55.30;;;;;;4996316;28;20506;-71
2023/06/03 12:11:31;;;;;;;5.28;0.63;;;23.50;56.10;;;;;;4999433;28;20026;-71
2023/06/03 12:13:57;;;;;;;2.00;0.25;;;23.40;56.40;;;;;;4994825;28;20057;-72
2023/06/03 12:16:26;;;;;;;0.75;0.20;;;23.40;56.40;;;;;;4995486;28;20415;-70
2023/06/03 12:18:54;;;;;;;2.35;0.15;;;23.50;57.00;;;;;;4995860;28;20388;-71
2023/06/03 12:21:23;;;;;;;2.72;0.22;;;23.50;56.10;;;;;;5001372;28;20026;-71
2023/06/03 12:23:52;;;;;;;3.70;0.30;;;23.40;55.70;;;;;;5003196;28;20034;-70
2023/06/03 12:26:17;;;;;;;0.75;0.50;;;23.40;55.90;;;;;;5004102;28;20037;-71
2023/06/03 12:28:43;;;;;;;2.22;0.20;;;23.30;56.30;;;;;;5004269;28;20034;-70
2023/06/03 12:31:16;;;;;;;0.68;0.30;;;23.30;54.80;;;;;;5003596;28;20120;-70
2023/06/03 12:33:42;;;;;;;1.25;0.32;;;23.10;54.00;;;;;;5004436;28;20172;-70
2023/06/03 12:36:09;;;;;;;0.57;0.30;;;23.10;54.80;;;;;;4999180;28;20034;-70
2023/06/03 12:38:55;;;;;;;0.95;0.20;;;23.10;54.70;;;;;;5005302;28;20494;-70
2023/06/03 12:41:20;;;;;;;0.98;0.20;;;23.00;56.50;;;;;;5000467;28;20122;-70
2023/06/03 12:43:46;;;;;;;0.55;0.10;;;23.00;56.10;;;;;;5004074;28;20117;-71
2023/06/03 12:46:19;;;;;;;2.58;0.13;;;23.00;55.20;;;;;;5006049;28;20049;-71
2023/06/03 12:48:45;;;;;;;0.70;0.35;;;23.00;55.90;;;;;;5002146;28;20113;-70
2023/06/03 12:51:29;;;;;;;0.57;0.17;;;23.00;55.60;;;;;;5004154;28;20113;-71
2023/06/03 12:53:56;;;;;;;0.75;0.00;;;23.00;53.90;;;;;;4999959;28;20038;-70
2023/06/03 12:56:26;;;;;;;5.32;0.10;;;23.00;53.70;;;;;;5002445;28;20133;-71
2023/06/03 12:58:53;;;;;;;3.03;0.30;;;23.00;54.40;;;;;;5002947;28;20037;-71